KEVV/EVV METAR and TAF weather

Enter ICAO airport designator
Station Type Date Time Source
KEVV METAR 2018/12/19 09:54 UTC NOAA

KEVV 190954Z AUTO 00000KT 10SM CLR M02/M02 A3004 RMK AO2 SLP175 T10171022 $


Station Type Date Time Source
KEVV Decoded METAR 2018/12/19 09:54 UTC NOAA

EVANSVILLE REGIONAL, IN, United States (KEVV) 38-02N 087-32W 117M
Dec 19, 2018 - 04:54 AM EST / 2018.12.19 0954 UTC
Wind: Calm:0
Visibility: 10 mile(s):0
Sky conditions: clear
Temperature: 28.9 F (-1.7 C)
Dew Point: 28.0 F (-2.2 C)
Relative Humidity: 96%
Pressure (altimeter): 30.04 in. Hg (1017 hPa)
ob: KEVV 190954Z AUTO 00000KT 10SM CLR M02/M02 A3004 RMK AO2 SLP175 T10171022
cycle: 10

Station Type Date Time Source
KEVV TAF 2018/12/19 06:22 UTC NOAA

TAF KEVV 190520Z 1906/2006 VRB03KT P6SM BKN250
FM191600 18006KT P6SM BKN250
FM200200 17005KT P6SM BKN110


Example: see airport list